• images/banner/banner1.jpg
  • images/banner/banner2.jpg

Team Member Login

Aviation Weather

[source: ADDS]
METAR
EGVN 191650Z 26010KT 9999 FEW024 BKN030 23/15 Q1022 NOSIG =
TAF
TAF EGVN 191638Z 1918/2018 24008KT 9999 FEW023 BECMG 1922/2001 BKN008 PROB30 2002/2006 BKN006 TEMPO 2006/2009 FEW008 BECMG 2009/2012 FEW020 TEMPO 2009/2018 BKN020 =